createdAt,value
2023-01-18T00:01:13.634Z,95626.84
2023-01-18T00:03:42.264Z,95621.88
2023-01-18T00:06:10.281Z,95636.38
2023-01-18T00:08:39.106Z,95626.00
2023-01-18T00:11:08.478Z,95621.03
2023-01-18T00:13:36.416Z,95607.50
2023-01-18T00:16:17.864Z,95618.53
2023-01-18T00:18:56.241Z,95621.63
2023-01-18T00:21:24.738Z,95622.03
2023-01-18T00:23:52.776Z,95612.59
2023-01-18T00:26:20.617Z,95616.13
2023-01-18T00:28:48.515Z,95624.88
2023-01-18T00:31:17.941Z,95632.41
2023-01-18T00:33:46.571Z,95667.97
2023-01-18T00:36:15.000Z,95645.72
2023-01-18T00:38:42.754Z,95659.72
2023-01-18T00:41:10.502Z,95667.97
2023-01-18T00:43:41.304Z,95666.53
2023-01-18T00:46:16.543Z,95657.66
2023-01-18T00:48:44.487Z,95657.22
2023-01-18T00:51:13.803Z,95665.66
2023-01-18T00:53:44.290Z,95664.06
2023-01-18T00:56:14.004Z,95666.19
2023-01-18T00:58:41.890Z,95651.06
2023-01-18T01:01:10.236Z,95655.88
2023-01-18T01:03:56.471Z,95671.22
2023-01-18T01:06:47.558Z,95667.31
2023-01-18T01:09:20.753Z,95664.16
2023-01-18T01:12:07.604Z,95670.75
2023-01-18T01:14:55.435Z,95675.47
2023-01-18T01:17:41.769Z,95661.06
2023-01-18T01:20:28.763Z,95645.31
2023-01-18T01:23:15.129Z,95648.81
2023-01-18T01:26:01.517Z,95639.72
2023-01-18T01:28:29.313Z,95642.91
2023-01-18T01:31:00.590Z,95640.19
2023-01-18T01:33:29.320Z,95658.34
2023-01-18T01:35:58.061Z,95630.66
2023-01-18T01:38:25.814Z,95632.69
2023-01-18T01:40:58.100Z,95608.84
2023-01-18T01:43:39.338Z,95602.66
2023-01-18T01:46:39.018Z,95603.31
2023-01-18T01:49:30.000Z,95603.16
2023-01-18T01:52:11.617Z,95606.84
2023-01-18T01:55:34.941Z,95602.34
2023-01-18T01:58:05.478Z,95620.72
2023-01-18T02:00:33.311Z,95616.78
2023-01-18T02:03:08.063Z,95613.06
2023-01-18T02:05:40.271Z,95606.41
2023-01-18T02:08:11.518Z,95600.31
2023-01-18T02:10:39.520Z,95584.59
2023-01-18T02:13:07.460Z,95590.34
2023-01-18T02:15:48.334Z,95587.34
2023-01-18T02:18:34.865Z,95581.09
2023-01-18T02:21:34.324Z,95583.72
2023-01-18T02:24:23.991Z,95618.19
2023-01-18T02:26:53.865Z,95613.59
2023-01-18T02:29:31.203Z,95624.81
2023-01-18T02:32:17.827Z,95608.06
2023-01-18T02:34:49.251Z,95608.28
2023-01-18T02:37:22.952Z,95591.75
2023-01-18T02:40:09.559Z,95591.50
2023-01-18T02:42:56.136Z,95597.97
2023-01-18T02:46:02.682Z,95581.09
2023-01-18T02:48:37.516Z,95584.41
2023-01-18T02:51:05.589Z,95593.75
2023-01-18T02:53:35.498Z,95606.16
2023-01-18T02:56:22.301Z,95607.88
2023-01-18T02:58:56.061Z,95590.19
2023-01-18T03:01:28.737Z,95585.22
2023-01-18T03:04:04.197Z,95599.78
2023-01-18T03:06:31.974Z,95613.81
2023-01-18T03:08:59.639Z,95628.78
2023-01-18T03:11:35.416Z,95635.88
2023-01-18T03:14:21.907Z,95604.59
2023-01-18T03:17:12.224Z,95610.16
2023-01-18T03:20:11.099Z,95611.09
2023-01-18T03:23:24.979Z,95595.72
2023-01-18T03:25:54.940Z,95575.13
2023-01-18T03:28:46.801Z,95604.31
2023-01-18T03:31:56.132Z,95590.34
2023-01-18T03:34:42.717Z,95572.78
2023-01-18T03:37:13.755Z,95574.31
2023-01-18T03:39:43.958Z,95560.28
2023-01-18T03:42:16.887Z,95585.16
2023-01-18T03:44:55.181Z,95586.09
2023-01-18T03:47:22.897Z,95600.19
2023-01-18T03:49:50.612Z,95585.72
2023-01-18T03:52:26.323Z,95586.63
2023-01-18T03:55:29.274Z,95575.34
2023-01-18T03:58:02.583Z,95578.16
2023-01-18T04:00:31.443Z,95586.63
2023-01-18T04:02:59.789Z,95590.44
2023-01-18T04:05:27.708Z,95606.88
2023-01-18T04:07:55.401Z,95604.56
2023-01-18T04:10:23.152Z,95600.75
2023-01-18T04:12:50.867Z,95607.25
2023-01-18T04:15:19.504Z,95597.03
2023-01-18T04:17:49.817Z,95614.72
2023-01-18T04:20:17.693Z,95598.22
2023-01-18T04:22:45.378Z,95604.97
2023-01-18T04:25:13.147Z,95600.38
2023-01-18T04:27:40.889Z,95606.09
2023-01-18T04:30:09.258Z,95623.25
2023-01-18T04:32:36.949Z,95598.50
2023-01-18T04:35:05.002Z,95611.38
2023-01-18T04:37:34.057Z,95621.66
2023-01-18T04:40:01.768Z,95639.97
2023-01-18T04:42:30.468Z,95629.84
2023-01-18T04:44:58.532Z,95601.91
2023-01-18T04:47:29.104Z,95603.06
2023-01-18T04:49:57.731Z,95605.59
2023-01-18T04:52:26.808Z,95604.75
2023-01-18T04:54:54.594Z,95603.41
2023-01-18T04:57:22.355Z,95615.59
2023-01-18T04:59:50.062Z,95600.38
2023-01-18T05:02:17.861Z,95600.34
2023-01-18T05:04:45.578Z,95601.16
2023-01-18T05:07:13.411Z,95612.75
2023-01-18T05:09:41.135Z,95618.97
2023-01-18T05:12:08.961Z,95605.44
2023-01-18T05:14:36.682Z,95605.59
2023-01-18T05:17:04.402Z,95600.94
2023-01-18T05:19:32.155Z,95617.88
2023-01-18T05:21:59.920Z,95609.63
2023-01-18T05:24:29.775Z,95619.31
2023-01-18T05:26:58.116Z,95632.09
2023-01-18T05:29:25.823Z,95626.22
2023-01-18T05:31:53.605Z,95627.84
2023-01-18T05:34:21.343Z,95610.75
2023-01-18T05:36:49.121Z,95646.19
2023-01-18T05:39:16.795Z,95627.72
2023-01-18T05:41:44.566Z,95639.13
2023-01-18T05:44:12.289Z,95623.84
2023-01-18T05:46:39.992Z,95618.72
2023-01-18T05:49:07.717Z,95617.22
2023-01-18T05:51:35.615Z,95616.34
2023-01-18T05:54:03.409Z,95626.16
2023-01-18T05:56:31.206Z,95640.81
2023-01-18T05:58:58.964Z,95654.19
2023-01-18T06:01:26.804Z,95647.41
2023-01-18T06:03:54.514Z,95639.69
2023-01-18T06:06:22.284Z,95645.81
2023-01-18T06:08:49.977Z,95657.06
2023-01-18T06:11:17.706Z,95641.38
2023-01-18T06:13:45.430Z,95648.47
2023-01-18T06:16:13.253Z,95652.44
2023-01-18T06:18:41.492Z,95658.44
2023-01-18T06:21:10.856Z,95650.53
2023-01-18T06:23:39.704Z,95643.66
2023-01-18T06:26:07.412Z,95654.72
2023-01-18T06:28:35.195Z,95642.88
2023-01-18T06:31:04.921Z,95630.75
2023-01-18T06:33:32.732Z,95638.00
2023-01-18T06:36:01.473Z,95626.75
2023-01-18T06:38:29.828Z,95635.50
2023-01-18T06:40:57.885Z,95657.13
2023-01-18T06:43:25.669Z,95643.84
2023-01-18T06:45:54.763Z,95653.69
2023-01-18T06:48:24.187Z,95645.66
2023-01-18T06:50:55.103Z,95661.88
2023-01-18T06:53:22.826Z,95685.78
2023-01-18T06:55:57.368Z,95675.84
2023-01-18T06:58:26.181Z,95669.88
2023-01-18T07:00:57.959Z,95654.75
2023-01-18T07:03:26.547Z,95665.97
2023-01-18T07:05:54.794Z,95673.06
2023-01-18T07:08:22.722Z,95666.16
2023-01-18T07:10:52.530Z,95666.56
2023-01-18T07:13:20.814Z,95685.13
2023-01-18T07:16:01.104Z,95682.41
2023-01-18T07:18:29.673Z,95667.94
2023-01-18T07:21:07.116Z,95681.66
2023-01-18T07:23:38.769Z,95685.13
2023-01-18T07:26:08.634Z,95685.97
2023-01-18T07:28:36.481Z,95698.34
2023-01-18T07:31:04.801Z,95697.00
2023-01-18T07:33:32.534Z,95695.81
2023-01-18T07:36:00.302Z,95680.09
2023-01-18T07:38:28.088Z,95708.78
2023-01-18T07:41:02.948Z,95674.13
2023-01-18T07:43:31.738Z,95672.16
2023-01-18T07:46:00.116Z,95687.31
2023-01-18T07:48:28.003Z,95699.19
2023-01-18T07:50:59.785Z,95689.91
2023-01-18T07:53:27.910Z,95715.25
2023-01-18T07:55:59.250Z,95717.59
2023-01-18T07:58:27.031Z,95722.09
2023-01-18T08:00:54.752Z,95747.63
2023-01-18T08:03:22.548Z,95747.41
2023-01-18T08:05:50.250Z,95746.69
2023-01-18T08:08:18.521Z,95771.47
2023-01-18T08:10:46.292Z,95753.94
2023-01-18T08:13:14.042Z,95758.69
2023-01-18T08:15:41.791Z,95784.41
2023-01-18T08:18:09.664Z,95751.28
2023-01-18T08:20:37.359Z,95795.81
2023-01-18T08:23:05.173Z,95795.13
2023-01-18T08:25:33.533Z,95794.56
2023-01-18T08:28:01.776Z,95798.09
2023-01-18T08:30:34.132Z,95788.06
2023-01-18T08:33:02.220Z,95799.59
2023-01-18T08:35:31.674Z,95801.97
2023-01-18T08:37:59.934Z,95800.41
2023-01-18T08:40:28.114Z,95793.44
2023-01-18T08:42:57.789Z,95800.19
2023-01-18T08:45:26.022Z,95826.31
2023-01-18T08:48:02.494Z,95816.59
2023-01-18T08:50:30.673Z,95817.34
2023-01-18T08:53:00.144Z,95812.22
2023-01-18T08:55:29.681Z,95813.47
2023-01-18T08:57:58.849Z,95822.84
2023-01-18T09:00:30.219Z,95819.84
2023-01-18T09:02:59.236Z,95839.56
2023-01-18T09:05:27.514Z,95824.66
2023-01-18T09:07:55.659Z,95858.59
2023-01-18T09:36:59.791Z,95909.03
2023-01-18T09:39:27.684Z,95907.69
2023-01-18T09:42:00.035Z,95920.69
2023-01-18T09:44:40.134Z,95924.50
2023-01-18T09:47:23.080Z,95927.47
2023-01-18T09:49:55.393Z,95942.53
2023-01-18T09:52:32.470Z,95934.03
2023-01-18T10:21:52.247Z,95944.91
2023-01-18T10:24:55.317Z,95937.47
2023-01-18T10:27:22.983Z,95937.59
2023-01-18T10:30:15.234Z,95937.69
2023-01-18T10:32:47.855Z,95946.13
2023-01-18T10:35:23.755Z,95922.66
2023-01-18T10:37:51.603Z,95929.81
2023-01-18T10:40:19.281Z,95936.69
2023-01-18T10:42:48.455Z,95915.59
2023-01-18T10:45:20.335Z,95915.81
2023-01-18T10:47:48.801Z,95918.00
2023-01-18T10:50:24.669Z,95923.19
2023-01-18T10:52:52.331Z,95921.66
2023-01-18T10:55:20.211Z,95931.00
2023-01-18T10:57:50.031Z,95938.72
2023-01-18T11:00:21.392Z,95945.69
2023-01-18T11:02:50.641Z,95948.56
2023-01-18T11:05:18.466Z,95956.97
2023-01-18T11:07:46.223Z,95968.16
2023-01-18T11:10:34.096Z,95971.22
2023-01-18T11:13:01.992Z,95971.25
2023-01-18T11:15:29.855Z,95972.81
2023-01-18T11:17:58.080Z,95969.56
2023-01-18T11:20:44.565Z,95972.19
2023-01-18T11:23:32.871Z,95969.13
2023-01-18T11:26:09.178Z,95972.81
2023-01-18T11:28:45.306Z,95980.75
2023-01-18T11:31:14.787Z,95981.63
2023-01-18T11:33:56.238Z,95978.00
2023-01-18T11:36:37.912Z,95975.13
2023-01-18T11:39:27.677Z,95978.75
2023-01-18T11:42:31.572Z,95964.03
2023-01-18T11:45:02.031Z,95964.16
2023-01-18T11:47:53.700Z,95957.28
2023-01-18T11:50:49.099Z,95952.06
2023-01-18T11:53:48.628Z,95945.75
2023-01-18T11:56:19.376Z,95944.63
2023-01-18T11:58:49.573Z,95954.41
2023-01-18T12:01:22.950Z,95947.53
2023-01-18T12:04:27.564Z,95947.69
2023-01-18T12:07:19.923Z,95949.56
2023-01-18T12:10:00.844Z,95957.47
2023-01-18T12:12:44.730Z,95957.16
2023-01-18T12:15:38.827Z,95947.44
2023-01-18T12:18:14.217Z,95954.66
2023-01-18T12:21:07.294Z,95943.72
2023-01-18T12:23:42.350Z,95952.56
2023-01-18T12:26:31.996Z,95953.31
2023-01-18T12:28:59.611Z,95950.91
2023-01-18T12:32:09.312Z,95958.75
2023-01-18T12:34:59.011Z,95967.88
2023-01-18T12:37:31.107Z,95972.03
2023-01-18T12:40:27.012Z,95979.38
2023-01-18T12:43:10.123Z,95974.69
2023-01-18T12:45:40.530Z,95972.38
2023-01-18T12:48:14.280Z,95984.66
2023-01-18T12:50:43.617Z,95980.66
2023-01-18T12:53:15.242Z,95987.78
2023-01-18T12:55:44.491Z,95988.91
2023-01-18T12:58:16.405Z,95999.44
2023-01-18T13:00:48.757Z,96001.72
2023-01-18T13:03:17.987Z,96009.47
2023-01-18T13:05:52.959Z,96022.13
2023-01-18T13:08:59.604Z,96032.38
2023-01-18T13:11:32.515Z,96020.75
2023-01-18T13:14:11.612Z,96043.44
2023-01-18T13:16:50.518Z,96042.69
2023-01-18T13:19:54.560Z,96048.88
2023-01-18T13:22:43.619Z,96048.81
2023-01-18T13:25:17.026Z,96047.41
2023-01-18T13:28:19.627Z,96050.06
2023-01-18T13:31:06.515Z,96063.22
2023-01-18T13:33:41.822Z,96065.22
2023-01-18T13:36:17.335Z,96065.44
2023-01-18T13:38:53.458Z,96058.16
2023-01-18T13:41:29.347Z,96062.84
2023-01-18T13:44:25.618Z,96054.50
2023-01-18T13:46:53.339Z,96057.31
2023-01-18T13:49:36.106Z,96048.13
2023-01-18T13:52:31.702Z,96055.88
2023-01-18T13:55:23.995Z,96048.84
2023-01-18T13:57:55.446Z,96057.63
2023-01-18T14:00:24.651Z,96060.06
2023-01-18T14:02:56.681Z,96060.41
2023-01-18T14:05:26.239Z,96065.47
2023-01-18T14:07:58.530Z,96059.31
2023-01-18T14:10:36.383Z,96056.13
2023-01-18T14:13:05.600Z,96056.81
2023-01-18T14:15:39.291Z,96047.00
2023-01-18T14:18:21.971Z,96051.97
2023-01-18T14:20:54.392Z,96048.25
2023-01-18T14:23:54.781Z,96049.41
2023-01-18T14:26:22.574Z,96046.09
2023-01-18T14:28:57.299Z,96044.56
2023-01-18T14:31:29.072Z,96040.03
2023-01-18T14:33:56.968Z,96034.72
2023-01-18T14:36:27.338Z,96040.81
2023-01-18T14:39:13.287Z,96036.84
2023-01-18T14:41:43.344Z,96035.53
2023-01-18T14:44:24.222Z,96054.34
2023-01-18T14:46:54.001Z,96054.34
2023-01-18T14:49:26.194Z,96059.34
2023-01-18T14:51:54.501Z,96065.44
2023-01-18T14:54:24.675Z,96069.41
2023-01-18T14:57:03.099Z,96065.06
2023-01-18T14:59:33.648Z,96073.72
2023-01-18T15:02:22.616Z,96089.34
2023-01-18T15:04:50.426Z,96096.41
2023-01-18T15:07:20.489Z,96091.31
2023-01-18T15:09:48.303Z,96097.41
2023-01-18T15:12:19.267Z,96095.41
2023-01-18T15:14:48.176Z,96101.47
2023-01-18T15:17:23.829Z,96097.16
2023-01-18T15:19:59.726Z,96100.66
2023-01-18T15:22:32.530Z,96119.19
2023-01-18T15:25:00.246Z,96121.31
2023-01-18T15:27:34.148Z,96119.56
2023-01-18T15:30:01.912Z,96127.34
2023-01-18T15:32:31.185Z,96126.47
2023-01-18T15:34:59.195Z,96127.03
2023-01-18T15:37:37.561Z,96128.38
2023-01-18T15:40:14.337Z,96124.09
2023-01-18T15:43:05.165Z,96132.97
2023-01-18T15:45:34.192Z,96134.00
2023-01-18T15:48:23.068Z,96138.09
2023-01-18T15:50:52.576Z,96139.34
2023-01-18T15:53:29.206Z,96148.56
2023-01-18T15:56:04.880Z,96145.34
2023-01-18T15:58:41.499Z,96140.47
2023-01-18T16:01:20.378Z,96148.06
2023-01-18T16:03:48.098Z,96142.25
2023-01-18T16:06:22.604Z,96139.91
2023-01-18T16:09:00.486Z,96144.00
2023-01-18T16:11:32.209Z,96154.19
2023-01-18T16:14:01.421Z,96153.88
2023-01-18T16:16:29.257Z,96151.59
2023-01-18T16:19:13.083Z,96146.59
2023-01-18T16:21:42.579Z,96155.25
2023-01-18T16:24:18.197Z,96167.47
2023-01-18T16:26:46.030Z,96163.06
2023-01-18T16:29:13.724Z,96157.28
2023-01-18T16:31:42.909Z,96167.84
2023-01-18T16:34:19.957Z,96164.78
2023-01-18T16:36:48.440Z,96161.72
2023-01-18T16:39:16.136Z,96170.91
2023-01-18T16:41:56.300Z,96167.88
2023-01-18T16:44:24.049Z,96174.81
2023-01-18T16:46:53.904Z,96165.22
2023-01-18T16:49:21.674Z,96163.44
2023-01-18T16:51:50.612Z,96161.78
2023-01-18T16:54:18.869Z,96168.25
2023-01-18T16:56:47.509Z,96160.97
2023-01-18T16:59:17.572Z,96154.59
2023-01-18T17:01:45.873Z,96160.00
2023-01-18T17:04:13.962Z,96155.47
2023-01-18T17:06:42.430Z,96147.63
2023-01-18T17:09:22.832Z,96157.00
2023-01-18T17:11:50.676Z,96160.53
2023-01-18T17:14:18.753Z,96153.31
2023-01-18T17:16:46.736Z,96157.19
2023-01-18T17:19:19.146Z,96150.41
2023-01-18T17:21:47.872Z,96151.16
2023-01-18T17:24:15.951Z,96163.88
2023-01-18T17:26:43.851Z,96168.47
2023-01-18T17:29:17.899Z,96165.63
2023-01-18T17:31:52.141Z,96167.09
2023-01-18T17:34:27.980Z,96161.94
2023-01-18T17:36:58.266Z,96156.50
2023-01-18T17:39:37.404Z,96172.06
2023-01-18T17:42:19.197Z,96175.19
2023-01-18T17:44:50.912Z,96160.34
2023-01-18T17:47:18.679Z,96164.63
2023-01-18T17:49:46.334Z,96161.78
2023-01-18T17:52:14.073Z,96157.28
2023-01-18T17:54:41.759Z,96146.44
2023-01-18T17:57:09.513Z,96161.50
2023-01-18T17:59:37.426Z,96170.38
2023-01-18T18:02:05.254Z,96173.97
2023-01-18T18:04:32.973Z,96168.47
2023-01-18T18:07:00.785Z,96166.97
2023-01-18T18:09:28.724Z,96180.91
2023-01-18T18:11:57.320Z,96172.88
2023-01-18T18:14:25.577Z,96174.03
2023-01-18T18:16:53.300Z,96183.94
2023-01-18T18:19:21.138Z,96186.78
2023-01-18T18:21:48.944Z,96198.81
2023-01-18T18:24:16.745Z,96196.75
2023-01-18T18:26:44.465Z,96194.28
2023-01-18T18:29:12.264Z,96196.03
2023-01-18T18:31:40.031Z,96206.81
2023-01-18T18:34:08.734Z,96216.16
2023-01-18T18:36:36.771Z,96211.19
2023-01-18T18:39:04.955Z,96211.72
2023-01-18T18:41:32.742Z,96221.38
2023-01-18T18:44:00.634Z,96220.84
2023-01-18T18:46:28.490Z,96222.78
2023-01-18T18:48:56.649Z,96223.94
2023-01-18T18:51:24.866Z,96228.75
2023-01-18T18:53:52.668Z,96233.50
2023-01-18T18:56:20.752Z,96229.38
2023-01-18T18:58:49.037Z,96223.47
2023-01-18T19:01:24.618Z,96248.56
2023-01-18T19:03:53.123Z,96253.50
2023-01-18T19:06:21.272Z,96245.97
2023-01-18T19:08:49.378Z,96246.06
2023-01-18T19:11:17.113Z,96230.78
2023-01-18T19:13:44.906Z,96220.91
2023-01-18T19:16:12.733Z,96220.63
2023-01-18T19:18:40.583Z,96215.28
2023-01-18T19:21:08.744Z,96204.50
2023-01-18T19:23:36.511Z,96216.94
2023-01-18T19:26:04.215Z,96218.22
2023-01-18T19:28:31.947Z,96219.78
2023-01-18T19:31:06.232Z,96204.91
2023-01-18T19:33:34.072Z,96206.47
2023-01-18T19:36:12.672Z,96203.53
2023-01-18T19:38:46.182Z,96214.56
2023-01-18T19:41:15.001Z,96215.94
2023-01-18T19:43:45.729Z,96215.41
2023-01-18T19:46:15.401Z,96225.75
2023-01-18T19:48:43.164Z,96215.41
2023-01-18T19:51:21.844Z,96214.91
2023-01-18T19:53:52.308Z,96212.81
2023-01-18T19:56:20.653Z,96206.75
2023-01-18T19:58:49.989Z,96209.34
2023-01-18T20:01:34.683Z,96206.00
2023-01-18T20:04:07.254Z,96199.50
2023-01-18T20:06:35.315Z,96204.41
2023-01-18T20:09:07.423Z,96208.28
2023-01-18T20:11:37.679Z,96204.16
2023-01-18T20:14:06.980Z,96217.84
2023-01-18T20:16:34.749Z,96225.16
2023-01-18T20:19:02.623Z,96223.44
2023-01-18T20:21:30.307Z,96225.69
2023-01-18T20:23:58.063Z,96215.22
2023-01-18T20:26:35.781Z,96201.56
2023-01-18T20:29:06.936Z,96196.66
2023-01-18T20:31:36.263Z,96204.56
2023-01-18T20:34:04.677Z,96195.88
2023-01-18T20:36:34.731Z,96196.69
2023-01-18T20:39:03.809Z,96198.75
2023-01-18T20:41:31.492Z,96177.88
2023-01-18T20:43:59.439Z,96191.97
2023-01-18T20:46:27.144Z,96186.91
2023-01-18T20:48:54.856Z,96178.50
2023-01-18T20:51:22.660Z,96172.34
2023-01-18T20:53:50.411Z,96176.72
2023-01-18T20:56:28.870Z,96171.81
2023-01-18T20:58:58.104Z,96188.66
2023-01-18T21:01:31.611Z,96181.66
2023-01-18T21:04:00.481Z,96194.84
2023-01-18T21:06:28.257Z,96185.53
2023-01-18T21:08:56.094Z,96189.66
2023-01-18T21:11:25.492Z,96185.00
2023-01-18T21:13:56.881Z,96199.00
2023-01-18T21:16:25.633Z,96191.47
2023-01-18T21:18:53.972Z,96186.31
2023-01-18T21:21:22.219Z,96205.97
2023-01-18T21:23:50.012Z,96206.47
2023-01-18T21:26:17.977Z,96214.53
2023-01-18T21:28:45.743Z,96209.84
2023-01-18T21:31:13.435Z,96209.09
2023-01-18T21:33:41.172Z,96206.00
2023-01-18T21:36:12.114Z,96204.44
2023-01-18T21:38:39.878Z,96203.69
2023-01-18T21:41:26.130Z,96190.41
2023-01-18T21:44:12.892Z,96190.84
2023-01-18T21:46:47.213Z,96199.78
2023-01-18T21:49:51.993Z,96181.63
2023-01-18T21:52:40.158Z,96168.97
2023-01-18T21:55:08.439Z,96175.97
2023-01-18T21:57:36.669Z,96181.41
2023-01-18T22:00:04.978Z,96185.28
2023-01-18T22:02:34.915Z,96171.78
2023-01-18T22:05:05.937Z,96162.13
2023-01-18T22:07:35.133Z,96159.91
2023-01-18T22:10:06.101Z,96162.00
2023-01-18T22:12:35.827Z,96166.38
2023-01-18T22:15:04.823Z,96163.75
2023-01-18T22:17:32.582Z,96163.47
2023-01-18T22:20:01.687Z,96159.94
2023-01-18T22:22:29.551Z,96151.63
2023-01-18T22:25:00.028Z,96152.66
2023-01-18T22:27:27.985Z,96152.69
2023-01-18T22:29:55.820Z,96144.13
2023-01-18T22:32:23.585Z,96149.69
2023-01-18T22:34:51.317Z,96156.53
2023-01-18T22:37:18.986Z,96145.91
2023-01-18T22:39:46.753Z,96135.97
2023-01-18T22:42:14.454Z,96137.13
2023-01-18T22:44:42.338Z,96127.31
2023-01-18T22:47:10.028Z,96142.84
2023-01-18T22:49:38.020Z,96143.63
2023-01-18T22:52:05.716Z,96145.63
2023-01-18T22:54:33.407Z,96131.41
2023-01-18T22:57:01.086Z,96132.47
2023-01-18T22:59:28.933Z,96124.81
2023-01-18T23:01:57.505Z,96142.41
2023-01-18T23:04:25.323Z,96149.78
2023-01-18T23:06:54.646Z,96164.88
2023-01-18T23:09:22.504Z,96162.72
2023-01-18T23:11:51.614Z,96131.69
2023-01-18T23:14:38.246Z,96143.22
2023-01-18T23:17:24.711Z,96155.63
2023-01-18T23:19:52.424Z,96154.53
2023-01-18T23:22:20.127Z,96162.31
2023-01-18T23:24:47.882Z,96144.38
2023-01-18T23:27:15.645Z,96155.22
2023-01-18T23:29:43.433Z,96164.31
2023-01-18T23:32:11.173Z,96166.13
2023-01-18T23:34:40.857Z,96148.00
2023-01-18T23:37:08.548Z,96184.25
2023-01-18T23:39:55.187Z,96164.59
2023-01-18T23:42:41.511Z,96138.16
2023-01-18T23:45:29.114Z,96159.91
2023-01-18T23:48:16.015Z,96127.84
2023-01-18T23:51:02.275Z,96142.34
2023-01-18T23:53:48.550Z,96144.66
2023-01-18T23:56:16.313Z,96130.69
2023-01-18T23:58:43.974Z,96136.38
